Time;durP1;ratioP1;P1;durP2;ratioP2;P2;SDS_P1;SDS_P2;PMS_P1;PMS_P2;Temp;Humidity;BMP_temperature;BMP_pressure;BME280_temperature;BME280_humidity;BME280_pressure;Samples;Min_cycle;Max_cycle;Signal;HPM_P1;HPM_P2
2022/11/22 00:00:35;;;;;;;18.52;3.53;;;18.60;51.10;;;;;;4912195;29;20138;-74
2022/11/22 00:03:00;;;;;;;5.53;3.10;;;18.60;51.10;;;;;;4910137;29;20126;-72
2022/11/22 00:05:26;;;;;;;4.45;2.50;;;18.50;51.10;;;;;;4908820;29;20533;-73
2022/11/22 00:07:52;;;;;;;4.50;3.03;;;18.50;51.10;;;;;;4926189;29;20063;-73
2022/11/22 00:10:17;;;;;;;6.32;2.78;;;18.50;51.10;;;;;;4895231;29;20148;-73
2022/11/22 00:12:43;;;;;;;3.90;2.47;;;18.50;51.00;;;;;;4911408;29;20051;-73
2022/11/22 00:15:09;;;;;;;4.15;3.05;;;18.50;51.00;;;;;;4902569;29;20075;-72
2022/11/22 00:17:36;;;;;;;5.07;2.80;;;18.50;51.00;;;;;;4909764;29;20099;-73
2022/11/22 00:20:02;;;;;;;3.92;2.83;;;18.50;51.10;;;;;;4909344;29;20044;-72
2022/11/22 00:22:27;;;;;;;3.53;2.63;;;18.50;51.00;;;;;;4911218;29;20047;-74
2022/11/22 00:24:53;;;;;;;4.57;3.17;;;18.40;50.90;;;;;;4908746;29;20403;-72
2022/11/22 00:27:19;;;;;;;3.45;2.53;;;18.50;50.90;;;;;;4909297;29;20122;-73
2022/11/22 00:29:45;;;;;;;5.68;2.70;;;18.50;50.90;;;;;;4910784;29;20043;-72
2022/11/22 00:32:10;;;;;;;3.55;2.60;;;18.40;50.90;;;;;;4924893;29;20107;-73
2022/11/22 00:34:36;;;;;;;4.88;3.10;;;18.40;50.90;;;;;;4910977;29;20044;-73
2022/11/22 00:37:03;;;;;;;3.95;2.53;;;18.40;50.80;;;;;;4908779;29;20035;-73
2022/11/22 00:39:28;;;;;;;3.22;2.42;;;18.40;50.90;;;;;;4903999;29;20734;-73
2022/11/22 00:41:54;;;;;;;4.68;2.90;;;18.50;50.80;;;;;;4879338;29;20036;-72
2022/11/22 00:44:19;;;;;;;3.85;2.78;;;18.40;50.70;;;;;;4884427;29;20070;-74
2022/11/22 00:46:45;;;;;;;4.25;2.50;;;18.40;50.70;;;;;;4910383;29;20084;-74
2022/11/22 00:49:10;;;;;;;3.50;2.60;;;18.40;50.70;;;;;;4908931;29;20039;-73
2022/11/22 00:51:36;;;;;;;3.67;2.50;;;18.40;50.70;;;;;;4895206;29;20059;-73
2022/11/22 00:54:01;;;;;;;3.90;2.70;;;18.40;50.70;;;;;;4892308;29;20131;-73
2022/11/22 00:56:27;;;;;;;4.38;2.53;;;18.40;50.70;;;;;;4907793;29;20099;-73
2022/11/22 00:58:53;;;;;;;2.83;2.33;;;18.40;50.60;;;;;;4909620;29;20055;-74
2022/11/22 01:01:18;;;;;;;3.60;2.50;;;18.50;50.70;;;;;;4905714;29;20407;-73
2022/11/22 01:03:44;;;;;;;3.63;2.45;;;18.50;50.70;;;;;;4908713;29;20048;-73
2022/11/22 01:06:09;;;;;;;2.47;2.28;;;18.40;50.60;;;;;;4906817;29;20559;-72
2022/11/22 01:08:35;;;;;;;3.17;2.40;;;18.40;50.60;;;;;;4909831;29;20055;-73
2022/11/22 01:11:01;;;;;;;3.70;2.25;;;18.50;50.60;;;;;;4905579;29;20051;-73
2022/11/22 01:13:28;;;;;;;3.67;2.38;;;18.40;50.60;;;;;;4910497;29;20067;-73
2022/11/22 01:16:01;;;;;;;3.53;2.58;;;18.40;50.60;;;;;;4905218;29;20451;-72
2022/11/22 01:18:27;;;;;;;3.50;2.35;;;18.50;50.50;;;;;;4905666;29;20082;-73
2022/11/22 01:20:53;;;;;;;3.13;2.20;;;18.40;50.50;;;;;;4904808;29;20050;-72
2022/11/22 01:23:19;;;;;;;3.63;2.42;;;18.40;50.60;;;;;;4888512;29;20056;-72
2022/11/22 01:25:45;;;;;;;3.30;2.20;;;18.50;50.50;;;;;;4908045;29;20074;-73
2022/11/22 01:28:10;;;;;;;3.15;2.05;;;18.40;50.50;;;;;;4910244;29;20051;-73
2022/11/22 01:30:36;;;;;;;3.10;2.30;;;18.40;50.40;;;;;;4910126;29;20395;-73
2022/11/22 01:33:02;;;;;;;3.30;2.45;;;18.40;50.40;;;;;;4909271;29;20410;-73
2022/11/22 01:35:28;;;;;;;2.40;2.03;;;18.40;50.40;;;;;;4906965;29;20044;-73
2022/11/22 01:37:54;;;;;;;3.53;2.40;;;18.40;50.40;;;;;;4898439;29;20123;-73
2022/11/22 01:40:19;;;;;;;2.63;2.17;;;18.40;51.20;;;;;;4898290;29;20056;-73
2022/11/22 01:42:49;;;;;;;2.90;2.13;;;18.40;50.40;;;;;;4911750;29;20039;-72
2022/11/22 01:45:33;;;;;;;3.30;2.42;;;18.40;51.20;;;;;;4909111;29;20087;-73
2022/11/22 01:48:11;;;;;;;3.60;2.13;;;18.40;50.30;;;;;;4916037;29;20044;-72
2022/11/22 01:50:38;;;;;;;;;;;18.40;50.40;;;;;;4914723;29;20099;-73
2022/11/22 01:53:12;;;;;;;3.30;2.33;;;18.40;50.50;;;;;;4914120;29;19927;-73
2022/11/22 01:55:39;;;;;;;2.80;2.28;;;18.40;50.40;;;;;;4906324;29;20048;-72
2022/11/22 01:58:04;;;;;;;3.10;2.30;;;18.40;50.30;;;;;;4914587;29;20043;-73
2022/11/22 02:00:30;;;;;;;2.95;2.00;;;18.40;50.40;;;;;;4932580;29;20050;-73
2022/11/22 02:02:59;;;;;;;2.20;2.00;;;18.40;50.30;;;;;;4893455;29;20767;-74
2022/11/22 02:05:30;;;;;;;3.45;2.25;;;18.40;51.10;;;;;;4913114;29;20035;-73
2022/11/22 02:08:05;;;;;;;3.17;2.17;;;18.40;50.30;;;;;;4926667;29;20043;-72
2022/11/22 02:10:36;;;;;;;2.40;2.10;;;18.40;50.20;;;;;;4909040;29;20060;-73
2022/11/22 02:13:02;;;;;;;3.17;2.25;;;18.40;50.20;;;;;;4913600;29;20276;-73
2022/11/22 02:15:28;;;;;;;2.50;1.90;;;18.40;50.20;;;;;;4912282;29;20051;-72
2022/11/22 02:17:56;;;;;;;3.30;2.25;;;18.40;50.20;;;;;;4897886;29;20126;-73
2022/11/22 02:20:22;;;;;;;2.65;2.20;;;18.40;50.10;;;;;;4912845;29;20131;-73
2022/11/22 02:23:06;;;;;;;2.72;2.03;;;18.40;50.10;;;;;;4911540;29;20166;-73
2022/11/22 02:25:59;;;;;;;2.90;2.38;;;18.40;50.10;;;;;;4911247;29;20162;-72
2022/11/22 02:28:27;;;;;;;3.22;2.42;;;18.40;50.00;;;;;;4892024;29;20059;-73
2022/11/22 02:30:53;;;;;;;2.97;2.28;;;18.40;50.00;;;;;;4896964;29;20083;-73
2022/11/22 02:33:19;;;;;;;3.85;2.45;;;18.40;50.00;;;;;;4909842;29;20079;-73
2022/11/22 02:35:45;;;;;;;3.92;2.45;;;18.40;49.90;;;;;;4924661;29;20148;-73
2022/11/22 02:38:25;;;;;;;2.90;2.40;;;18.40;49.90;;;;;;4894368;29;20394;-74
2022/11/22 02:41:07;;;;;;;4.10;2.42;;;18.40;49.80;;;;;;4904295;29;20052;-73
2022/11/22 02:43:40;;;;;;;2.65;2.28;;;18.40;49.80;;;;;;4903944;29;20047;-73
2022/11/22 02:46:11;;;;;;;3.17;2.10;;;18.40;49.80;;;;;;4909302;29;20043;-73
2022/11/22 02:48:41;;;;;;;2.97;2.33;;;18.40;49.80;;;;;;4900973;29;20184;-73
2022/11/22 02:51:06;;;;;;;3.22;1.85;;;18.40;49.70;;;;;;4905838;29;20620;-73
2022/11/22 02:53:32;;;;;;;2.97;2.38;;;18.40;49.70;;;;;;4904260;29;20044;-74
2022/11/22 02:55:57;;;;;;;3.17;2.17;;;18.40;49.70;;;;;;4909633;29;20058;-73
2022/11/22 02:58:23;;;;;;;2.42;2.10;;;18.40;49.60;;;;;;4929507;29;20079;-74
2022/11/22 03:00:49;;;;;;;3.20;2.00;;;18.40;49.60;;;;;;4926719;29;20043;-73
2022/11/22 03:03:14;;;;;;;2.30;2.10;;;18.40;49.60;;;;;;4909584;29;20454;-73
2022/11/22 03:05:40;;;;;;;3.65;2.20;;;18.40;49.60;;;;;;4913073;29;20386;-73
2022/11/22 03:08:05;;;;;;;2.70;2.00;;;18.40;49.50;;;;;;4889089;29;20056;-73
2022/11/22 03:10:31;;;;;;;3.45;2.10;;;18.40;49.50;;;;;;4897065;29;20694;-73
2022/11/22 03:12:57;;;;;;;4.13;2.15;;;18.40;49.40;;;;;;4926396;29;20130;-73
2022/11/22 03:15:23;;;;;;;3.15;2.30;;;18.40;49.40;;;;;;4900869;29;20058;-73
2022/11/22 03:17:55;;;;;;;3.85;2.25;;;18.40;49.40;;;;;;4910614;29;20048;-73
2022/11/22 03:20:20;;;;;;;2.75;2.10;;;18.40;49.40;;;;;;4903353;29;20526;-73
2022/11/22 03:22:46;;;;;;;2.78;2.00;;;18.40;49.40;;;;;;4908331;29;20048;-72
2022/11/22 03:25:11;;;;;;;3.85;2.20;;;18.40;49.40;;;;;;4905766;29;20407;-73
2022/11/22 03:27:37;;;;;;;2.80;2.00;;;18.40;49.40;;;;;;4899335;29;20516;-74
2022/11/22 03:30:03;;;;;;;3.10;2.10;;;18.40;49.30;;;;;;4911087;29;20194;-73
2022/11/22 03:32:29;;;;;;;2.42;2.10;;;18.40;49.30;;;;;;4898142;29;20428;-73
2022/11/22 03:34:54;;;;;;;2.72;1.92;;;18.40;49.30;;;;;;4910873;29;20094;-72
2022/11/22 03:37:20;;;;;;;2.20;2.00;;;18.40;49.30;;;;;;4912425;29;20057;-73
2022/11/22 03:39:45;;;;;;;3.00;1.98;;;18.40;49.30;;;;;;4913605;29;20090;-73
2022/11/22 03:42:11;;;;;;;2.20;1.90;;;18.40;49.30;;;;;;4906320;29;20044;-73
2022/11/22 03:44:36;;;;;;;3.83;2.33;;;18.40;49.30;;;;;;4898625;29;20122;-73
2022/11/22 03:47:02;;;;;;;2.10;1.70;;;18.40;49.30;;;;;;4924200;29;20131;-74
2022/11/22 03:49:27;;;;;;;2.70;1.92;;;18.40;49.30;;;;;;4909536;29;20463;-73
2022/11/22 03:51:53;;;;;;;1.92;1.65;;;18.40;49.30;;;;;;4911881;29;20033;-73
2022/11/22 03:54:18;;;;;;;2.40;1.90;;;18.30;49.20;;;;;;4901395;29;20447;-73
2022/11/22 03:56:44;;;;;;;2.20;2.00;;;18.40;49.30;;;;;;4894989;29;20518;-73
2022/11/22 03:59:09;;;;;;;2.92;1.92;;;18.40;49.30;;;;;;4909121;29;20528;-73
2022/11/22 04:01:35;;;;;;;3.72;2.08;;;18.30;49.20;;;;;;4927436;29;20127;-73
2022/11/22 04:04:01;;;;;;;3.67;2.03;;;18.40;49.30;;;;;;4909804;29;20404;-73
2022/11/22 04:06:26;;;;;;;3.05;1.70;;;18.40;49.30;;;;;;4892137;29;20048;-73
2022/11/22 04:08:52;;;;;;;2.55;1.77;;;18.40;49.20;;;;;;4900822;29;20504;-73
2022/11/22 04:11:17;;;;;;;3.60;1.80;;;18.40;49.20;;;;;;4894150;29;20803;-73
2022/11/22 04:16:27;;;;;;;3.15;1.85;;;18.30;49.10;;;;;;4902820;29;20513;-73
2022/11/22 04:18:52;;;;;;;2.55;1.83;;;18.40;49.20;;;;;;4903488;29;20039;-72
2022/11/22 04:21:33;;;;;;;2.95;1.80;;;18.30;49.10;;;;;;4903131;29;20052;-73
2022/11/22 04:26:55;;;;;;;2.00;1.73;;;18.40;49.20;;;;;;4907609;29;20044;-72
2022/11/22 04:29:22;;;;;;;2.10;1.80;;;18.30;49.10;;;;;;4926917;29;20047;-72
2022/11/22 04:34:34;;;;;;;2.75;1.83;;;18.30;49.10;;;;;;4909416;29;20043;-72
2022/11/22 04:37:00;;;;;;;2.70;2.10;;;18.40;49.10;;;;;;4928612;29;20047;-72
2022/11/22 04:39:26;;;;;;;3.20;1.90;;;18.40;49.10;;;;;;4910700;29;20051;-72
2022/11/22 04:44:41;;;;;;;2.03;1.80;;;18.30;49.00;;;;;;4873379;29;20048;-72
2022/11/22 04:47:11;;;;;;;;;;;18.40;49.00;;;;;;4909567;29;20072;-73
2022/11/22 04:49:37;;;;;;;3.00;1.80;;;18.30;49.10;;;;;;4911189;29;19973;-73
2022/11/22 04:54:48;;;;;;;2.17;1.70;;;18.40;49.00;;;;;;4920398;29;20052;-73
2022/11/22 04:57:13;;;;;;;2.63;1.70;;;18.40;49.00;;;;;;4895008;29;20381;-73
2022/11/22 04:59:39;;;;;;;2.67;1.77;;;18.40;49.80;;;;;;4911116;29;20051;-73
2022/11/22 05:02:05;;;;;;;2.67;1.67;;;18.40;49.00;;;;;;4927748;29;20490;-73
2022/11/22 05:04:30;;;;;;;2.80;1.65;;;18.40;49.00;;;;;;4907636;29;20035;-73
2022/11/22 05:06:56;;;;;;;2.20;1.70;;;18.40;49.00;;;;;;4895475;29;20052;-73
2022/11/22 05:09:22;;;;;;;1.98;1.52;;;18.40;49.00;;;;;;4889862;29;20044;-73
2022/11/22 05:11:48;;;;;;;3.67;1.70;;;18.40;49.00;;;;;;4887790;29;20058;-72
2022/11/22 05:14:14;;;;;;;1.90;1.60;;;18.40;49.00;;;;;;4905498;29;20044;-73
2022/11/22 05:16:40;;;;;;;1.92;1.60;;;18.40;49.00;;;;;;4892552;29;20044;-73
2022/11/22 05:19:05;;;;;;;2.30;1.80;;;18.40;49.00;;;;;;4890342;29;20548;-73
2022/11/22 05:21:34;;;;;;;2.65;1.80;;;18.40;49.00;;;;;;4885541;29;20049;-73
2022/11/22 05:24:00;;;;;;;2.03;1.48;;;18.40;49.00;;;;;;4891549;29;20123;-73
2022/11/22 05:26:31;;;;;;;2.47;1.50;;;18.40;49.00;;;;;;4888000;29;21588;-73
2022/11/22 05:28:58;;;;;;;1.65;1.40;;;18.40;49.00;;;;;;4876732;29;20645;-73
2022/11/22 05:31:26;;;;;;;3.03;2.00;;;18.40;49.00;;;;;;4912251;29;20056;-73
2022/11/22 05:33:53;;;;;;;1.83;1.60;;;18.40;49.10;;;;;;4912833;29;20574;-74
2022/11/22 05:36:20;;;;;;;2.42;1.55;;;18.40;49.00;;;;;;4889211;29;20048;-73
2022/11/22 05:38:46;;;;;;;1.77;1.50;;;18.40;49.00;;;;;;4895440;29;20365;-72
2022/11/22 05:41:13;;;;;;;1.70;1.45;;;18.30;49.00;;;;;;4897257;29;20036;-73
2022/11/22 05:43:39;;;;;;;2.25;1.55;;;18.40;49.00;;;;;;4882512;29;20063;-73
2022/11/22 05:46:08;;;;;;;2.45;1.60;;;18.40;49.00;;;;;;4908388;29;20420;-73
2022/11/22 05:48:35;;;;;;;2.72;1.70;;;18.40;49.00;;;;;;4894038;29;20082;-73
2022/11/22 05:51:09;;;;;;;1.77;1.60;;;18.40;49.00;;;;;;4896121;29;20138;-73
2022/11/22 05:53:36;;;;;;;2.03;1.52;;;18.30;49.00;;;;;;4910776;29;20044;-73
2022/11/22 05:56:10;;;;;;;1.42;1.23;;;18.40;49.00;;;;;;4890958;29;20595;-74
2022/11/22 05:58:36;;;;;;;1.60;1.30;;;18.40;49.00;;;;;;4894543;29;20072;-73
2022/11/22 06:01:17;;;;;;;2.40;1.60;;;18.40;49.00;;;;;;4890115;29;20060;-73
2022/11/22 06:03:43;;;;;;;2.53;1.65;;;18.40;49.00;;;;;;4888299;29;20059;-74
2022/11/22 06:06:09;;;;;;;1.67;1.40;;;18.40;49.00;;;;;;4893726;29;20043;-73
2022/11/22 06:08:37;;;;;;;1.85;1.30;;;18.40;49.00;;;;;;4926401;29;20054;-72
2022/11/22 06:11:12;;;;;;;1.73;1.48;;;18.40;49.00;;;;;;4890863;29;20055;-73
2022/11/22 06:13:40;;;;;;;2.08;1.70;;;18.40;49.00;;;;;;4907437;29;20452;-73
2022/11/22 06:16:07;;;;;;;1.70;1.20;;;18.40;49.00;;;;;;4913428;29;20106;-73
2022/11/22 06:18:34;;;;;;;2.13;1.58;;;18.40;49.00;;;;;;4911736;29;20154;-73
2022/11/22 06:21:02;;;;;;;2.33;1.40;;;18.40;49.00;;;;;;4912292;29;20398;-72
2022/11/22 06:23:28;;;;;;;2.20;1.40;;;18.40;49.00;;;;;;4903937;29;20075;-73
2022/11/22 06:25:59;;;;;;;2.63;1.50;;;18.40;49.00;;;;;;4924619;29;20504;-74
2022/11/22 06:28:31;;;;;;;4.38;1.27;;;18.40;49.00;;;;;;4905904;29;20522;-70
2022/11/22 06:31:07;;;;;;;3.85;1.70;;;18.40;49.00;;;;;;4880733;29;20065;-74
2022/11/22 06:33:33;;;;;;;2.38;1.38;;;18.40;49.00;;;;;;4909578;29;20563;-73
2022/11/22 06:36:06;;;;;;;3.47;1.20;;;18.50;49.10;;;;;;4899424;29;20032;-74
2022/11/22 06:38:32;;;;;;;3.95;1.77;;;18.40;49.00;;;;;;4901782;29;20043;-76
2022/11/22 06:40:59;;;;;;;1.63;1.40;;;18.40;49.10;;;;;;4901973;29;20056;-75
2022/11/22 06:43:29;;;;;;;2.55;1.45;;;18.40;49.30;;;;;;4897856;29;20464;-72
2022/11/22 06:45:56;;;;;;;3.53;1.23;;;18.50;49.50;;;;;;4887192;29;20051;-70
2022/11/22 06:48:23;;;;;;;1.80;1.40;;;18.50;49.50;;;;;;4904224;29;20083;-71
2022/11/22 06:50:48;;;;;;;1.48;1.13;;;18.50;49.70;;;;;;4926277;29;20504;-72
2022/11/22 06:53:14;;;;;;;1.77;1.40;;;18.50;49.80;;;;;;4899121;29;20051;-72
2022/11/22 06:55:40;;;;;;;2.03;1.30;;;18.50;49.90;;;;;;4900142;29;20047;-73
2022/11/22 06:58:05;;;;;;;4.05;1.60;;;18.50;49.90;;;;;;4911729;29;20075;-73
2022/11/22 07:00:31;;;;;;;7.25;1.50;;;18.50;50.00;;;;;;4897571;29;20052;-74
2022/11/22 07:02:57;;;;;;;4.97;1.65;;;18.50;50.00;;;;;;4894491;29;20059;-74
2022/11/22 07:05:22;;;;;;;4.88;1.48;;;18.60;50.20;;;;;;4898324;29;20966;-70
2022/11/22 07:07:48;;;;;;;4.80;1.38;;;18.50;50.20;;;;;;4887725;29;20550;-69
2022/11/22 07:10:13;;;;;;;2.08;1.35;;;18.50;50.70;;;;;;4884463;29;20056;-70
2022/11/22 07:12:39;;;;;;;3.17;1.40;;;18.50;50.40;;;;;;4888163;29;20051;-71
2022/11/22 07:15:05;;;;;;;3.65;1.23;;;18.50;50.50;;;;;;4907359;29;20055;-70
2022/11/22 07:17:31;;;;;;;5.65;1.55;;;18.40;50.50;;;;;;4887986;29;20052;-70
2022/11/22 07:19:56;;;;;;;2.47;1.50;;;18.40;50.70;;;;;;4889147;29;20071;-69
2022/11/22 07:22:22;;;;;;;4.32;1.30;;;18.50;50.80;;;;;;4873557;29;20166;-70
2022/11/22 07:24:48;;;;;;;3.17;1.23;;;18.50;50.80;;;;;;4875170;29;20055;-69
2022/11/22 07:27:13;;;;;;;4.55;1.50;;;18.40;50.80;;;;;;4908037;29;20559;-69
2022/11/22 07:29:39;;;;;;;2.88;1.40;;;18.40;50.90;;;;;;4885166;29;20101;-70
2022/11/22 07:32:04;;;;;;;2.17;1.20;;;18.40;50.90;;;;;;4892413;29;20047;-69
2022/11/22 07:34:30;;;;;;;2.65;1.50;;;18.50;51.10;;;;;;4906778;29;20116;-69
2022/11/22 07:36:56;;;;;;;3.00;1.50;;;18.50;51.10;;;;;;4889798;29;20222;-71
2022/11/22 07:39:21;;;;;;;3.15;1.30;;;18.40;51.10;;;;;;4881605;29;20099;-70
2022/11/22 07:41:47;;;;;;;3.05;1.40;;;18.40;51.10;;;;;;4891892;29;20036;-69
2022/11/22 07:44:12;;;;;;;3.25;1.40;;;18.40;51.10;;;;;;4906177;29;20036;-71
2022/11/22 07:46:38;;;;;;;1.45;1.20;;;18.50;51.20;;;;;;4906131;29;20055;-70
2022/11/22 07:49:03;;;;;;;3.10;1.20;;;18.40;51.10;;;;;;4890108;29;20047;-70
2022/11/22 07:51:29;;;;;;;2.33;1.40;;;18.50;51.20;;;;;;4907395;29;20052;-71
2022/11/22 07:53:56;;;;;;;2.05;1.30;;;18.50;51.20;;;;;;4889531;29;20036;-70
2022/11/22 07:56:22;;;;;;;2.53;1.40;;;18.50;51.30;;;;;;4888349;29;20044;-72
2022/11/22 07:58:48;;;;;;;4.50;1.40;;;18.40;51.20;;;;;;4899295;29;20543;-73
2022/11/22 08:01:16;;;;;;;2.45;1.27;;;18.40;51.20;;;;;;4896569;29;20048;-73
2022/11/22 08:03:42;;;;;;;4.20;1.42;;;18.50;51.30;;;;;;4880950;29;20107;-72
2022/11/22 08:06:10;;;;;;;4.75;1.38;;;18.40;51.30;;;;;;4881367;29;20127;-71
2022/11/22 08:08:36;;;;;;;3.70;1.50;;;18.40;51.30;;;;;;4883313;29;20056;-73
2022/11/22 08:11:03;;;;;;;1.92;1.33;;;18.40;51.20;;;;;;4880258;29;20278;-72
2022/11/22 08:13:29;;;;;;;2.58;1.40;;;18.40;51.20;;;;;;4886218;29;20055;-71
2022/11/22 08:16:17;;;;;;;4.25;1.80;;;18.40;51.20;;;;;;4899840;29;20464;-72
2022/11/22 08:18:48;;;;;;;4.75;1.48;;;18.40;51.10;;;;;;4871136;29;20139;-66
2022/11/22 08:21:15;;;;;;;4.05;1.67;;;18.40;51.00;;;;;;4896760;29;20418;-67
2022/11/22 08:23:41;;;;;;;4.18;1.33;;;18.40;51.00;;;;;;4895764;29;20513;-67
2022/11/22 08:26:11;;;;;;;4.13;1.40;;;18.40;51.00;;;;;;4877282;29;20060;-68
2022/11/22 08:28:37;;;;;;;2.45;1.27;;;18.50;51.10;;;;;;4877903;29;20052;-68
2022/11/22 08:31:12;;;;;;;3.63;1.38;;;18.40;51.10;;;;;;4896681;29;20813;-67
2022/11/22 08:33:38;;;;;;;3.95;1.27;;;18.40;51.20;;;;;;4877657;29;20057;-67
2022/11/22 08:36:04;;;;;;;3.60;1.65;;;18.40;51.20;;;;;;4898675;29;20073;-67
2022/11/22 08:38:29;;;;;;;3.30;1.40;;;18.40;51.30;;;;;;4894985;29;20040;-67
2022/11/22 08:40:55;;;;;;;4.13;1.60;;;18.40;51.30;;;;;;4880856;29;20055;-67
2022/11/22 08:43:21;;;;;;;5.90;1.33;;;18.40;51.30;;;;;;4884418;29;20055;-68
2022/11/22 08:45:51;;;;;;;3.30;1.30;;;18.40;51.30;;;;;;4879381;29;20075;-67
2022/11/22 08:48:17;;;;;;;3.42;1.40;;;18.40;51.40;;;;;;4880650;29;20123;-67
2022/11/22 08:50:52;;;;;;;3.88;1.50;;;18.40;51.40;;;;;;4895449;29;20492;-67
2022/11/22 08:53:18;;;;;;;4.07;1.50;;;18.50;51.50;;;;;;4879818;29;20103;-66
2022/11/22 08:55:44;;;;;;;3.92;1.58;;;18.40;51.50;;;;;;4897294;29;20048;-68
2022/11/22 08:58:10;;;;;;;8.90;1.73;;;18.50;51.60;;;;;;4880763;29;20750;-68
2022/11/22 09:00:35;;;;;;;2.60;1.58;;;18.50;51.60;;;;;;4898434;29;20048;-68
2022/11/22 09:03:01;;;;;;;5.10;1.63;;;18.50;51.60;;;;;;4882694;29;20052;-67
2022/11/22 09:05:26;;;;;;;5.18;1.40;;;18.50;51.40;;;;;;4882931;29;20048;-67
2022/11/22 09:08:00;;;;;;;3.58;1.48;;;18.60;51.40;;;;;;4908443;29;20127;-69
2022/11/22 09:10:26;;;;;;;5.13;1.55;;;18.60;51.40;;;;;;4901207;29;20094;-68
2022/11/22 09:12:51;;;;;;;4.50;1.73;;;18.60;51.30;;;;;;4915766;29;20127;-66
2022/11/22 09:15:21;;;;;;;4.43;1.60;;;18.70;51.20;;;;;;4908027;29;20632;-67
2022/11/22 09:17:46;;;;;;;2.22;1.23;;;18.60;51.10;;;;;;4920639;29;20043;-67
2022/11/22 09:20:12;;;;;;;4.57;1.60;;;18.70;51.10;;;;;;4919246;29;20048;-66
2022/11/22 09:22:38;;;;;;;2.95;1.50;;;18.60;51.00;;;;;;4919645;29;20048;-67
2022/11/22 09:25:05;;;;;;;8.43;1.65;;;18.60;51.10;;;;;;4923318;29;20040;-66
2022/11/22 09:27:32;;;;;;;3.85;1.30;;;18.60;51.20;;;;;;4921470;29;20043;-70
2022/11/22 09:29:57;;;;;;;2.72;1.50;;;18.60;51.20;;;;;;4923040;29;20059;-67
2022/11/22 09:32:23;;;;;;;2.67;1.40;;;18.70;51.30;;;;;;4914904;29;20052;-69
2022/11/22 09:34:49;;;;;;;5.78;1.70;;;18.60;51.30;;;;;;4929227;29;20044;-68
2022/11/22 09:37:17;;;;;;;7.78;1.83;;;18.60;51.30;;;;;;4913439;29;20047;-68
2022/11/22 09:39:43;;;;;;;6.82;1.45;;;18.60;51.10;;;;;;4915294;29;20063;-67
2022/11/22 09:42:33;;;;;;;3.58;1.48;;;18.60;51.30;;;;;;4910634;29;20055;-67
2022/11/22 09:45:14;;;;;;;5.30;1.40;;;18.60;51.30;;;;;;4893377;29;20094;-68
2022/11/22 09:48:08;;;;;;;3.72;1.60;;;18.60;51.50;;;;;;4928032;29;20119;-70
2022/11/22 09:50:42;;;;;;;8.18;1.60;;;18.60;51.40;;;;;;4912251;29;20455;-67
2022/11/22 09:53:15;;;;;;;4.68;1.33;;;18.60;51.40;;;;;;4927086;29;20515;-67
2022/11/22 09:55:51;;;;;;;4.10;1.38;;;18.60;51.40;;;;;;4911210;29;20524;-68
2022/11/22 09:58:50;;;;;;;6.28;1.67;;;18.60;51.40;;;;;;4928798;29;20508;-68
2022/11/22 10:01:21;;;;;;;3.30;1.48;;;18.60;51.50;;;;;;4900826;29;20036;-68
2022/11/22 10:04:10;;;;;;;4.07;1.30;;;18.60;51.40;;;;;;4925872;29;20094;-67
2022/11/22 10:06:46;;;;;;;5.15;1.50;;;18.60;51.30;;;;;;4901755;29;20059;-68
2022/11/22 10:09:37;;;;;;;5.63;1.48;;;18.70;51.20;;;;;;4915773;29;20700;-68
2022/11/22 10:12:18;;;;;;;4.28;1.58;;;18.70;51.10;;;;;;4904321;29;20042;-68
2022/11/22 10:15:07;;;;;;;3.63;1.40;;;18.70;51.10;;;;;;4906435;29;20559;-66
2022/11/22 10:17:53;;;;;;;4.15;1.40;;;18.70;51.20;;;;;;4899773;29;20048;-67
2022/11/22 10:20:24;;;;;;;9.45;1.75;;;18.70;51.10;;;;;;4905313;29;20061;-65
2022/11/22 10:22:49;;;;;;;4.38;1.40;;;18.70;51.10;;;;;;4930425;29;20067;-68
2022/11/22 10:25:35;;;;;;;5.93;1.48;;;18.70;51.10;;;;;;4902597;29;20083;-67
2022/11/22 10:28:14;;;;;;;4.70;1.40;;;18.70;51.00;;;;;;4907574;29;20039;-66
2022/11/22 10:30:47;;;;;;;3.97;1.27;;;18.70;50.90;;;;;;4908185;29;20052;-67
2022/11/22 10:33:25;;;;;;;3.33;1.60;;;18.70;50.90;;;;;;4894647;29;20075;-66
2022/11/22 10:36:06;;;;;;;5.55;1.30;;;18.70;51.00;;;;;;4927277;29;20046;-67
2022/11/22 10:39:02;;;;;;;2.47;1.02;;;18.80;51.00;;;;;;4922365;29;20162;-67
2022/11/22 10:41:55;;;;;;;3.35;1.30;;;18.70;51.00;;;;;;4903256;29;20448;-67
2022/11/22 10:44:39;;;;;;;6.05;1.35;;;18.70;51.10;;;;;;4928414;29;20059;-67
2022/11/22 10:47:07;;;;;;;5.95;1.40;;;18.70;51.10;;;;;;4923253;29;20080;-67
2022/11/22 10:50:10;;;;;;;2.65;1.05;;;18.70;51.10;;;;;;4917873;29;20083;-66
2022/11/22 10:53:00;;;;;;;3.80;1.38;;;18.70;51.10;;;;;;4903733;29;20040;-67
2022/11/22 10:56:04;;;;;;;5.68;1.55;;;18.70;51.10;;;;;;4931787;29;20047;-67
2022/11/22 10:59:12;;;;;;;4.40;1.42;;;18.70;51.00;;;;;;4923507;29;20403;-68
2022/11/22 11:01:53;;;;;;;2.97;1.50;;;18.70;50.90;;;;;;4849320;29;20143;-68
2022/11/22 11:04:21;;;;;;;4.75;1.33;;;18.70;50.90;;;;;;4927649;29;20040;-69
2022/11/22 11:06:57;;;;;;;5.25;1.40;;;18.70;50.90;;;;;;4885920;29;20058;-65
2022/11/22 11:09:45;;;;;;;3.95;1.20;;;18.70;50.90;;;;;;4913984;29;20083;-68
2022/11/22 11:12:18;;;;;;;3.05;1.30;;;18.70;50.90;;;;;;4909044;29;20044;-68
2022/11/22 11:14:51;;;;;;;5.28;1.30;;;18.80;51.00;;;;;;4915516;29;20040;-67
2022/11/22 11:17:24;;;;;;;3.35;1.20;;;18.80;51.00;;;;;;4896407;29;20055;-67
2022/11/22 11:19:53;;;;;;;4.95;1.30;;;18.80;51.00;;;;;;4910737;29;20040;-67
2022/11/22 11:22:23;;;;;;;4.32;1.00;;;18.80;50.90;;;;;;4892476;29;20052;-68
2022/11/22 11:24:48;;;;;;;5.85;1.33;;;18.80;50.90;;;;;;4915219;29;20134;-67
2022/11/22 11:27:16;;;;;;;3.38;1.50;;;18.80;50.90;;;;;;4908753;29;20656;-67
2022/11/22 11:29:46;;;;;;;4.00;1.30;;;18.80;50.90;;;;;;4896101;29;20430;-66
2022/11/22 11:32:18;;;;;;;4.80;1.52;;;18.80;50.90;;;;;;4912509;29;20116;-68
2022/11/22 11:34:55;;;;;;;4.47;1.40;;;18.80;50.90;;;;;;4911361;29;20436;-66
2022/11/22 11:37:42;;;;;;;5.70;1.50;;;18.80;50.90;;;;;;4902672;29;20082;-70
2022/11/22 11:40:27;;;;;;;3.85;1.30;;;18.80;50.90;;;;;;4907050;29;20059;-68
2022/11/22 11:43:18;;;;;;;3.95;1.10;;;18.80;50.70;;;;;;4900209;29;20052;-69
2022/11/22 11:45:44;;;;;;;6.18;1.83;;;18.80;50.60;;;;;;4916518;29;20633;-67
2022/11/22 11:48:36;;;;;;;4.45;1.48;;;18.80;50.60;;;;;;4914701;29;20071;-67
2022/11/22 11:51:14;;;;;;;5.07;1.35;;;18.80;50.60;;;;;;4899483;29;20171;-68
2022/11/22 11:53:48;;;;;;;4.35;1.38;;;18.80;50.60;;;;;;4912579;29;20153;-67
2022/11/22 11:56:37;;;;;;;4.03;1.30;;;18.80;50.60;;;;;;4914008;29;20535;-67
2022/11/22 11:59:10;;;;;;;4.35;1.30;;;18.80;50.60;;;;;;4916239;29;20503;-67
2022/11/22 12:01:46;;;;;;;4.82;1.63;;;18.80;50.60;;;;;;4915558;29;20072;-66
2022/11/22 12:04:20;;;;;;;3.25;1.13;;;18.80;50.60;;;;;;4899225;29;20674;-67
2022/11/22 12:06:53;;;;;;;3.70;1.23;;;18.80;50.60;;;;;;4911325;29;20519;-67
2022/11/22 12:09:31;;;;;;;5.22;1.30;;;18.80;50.60;;;;;;4915158;29;20648;-68
2022/11/22 12:12:06;;;;;;;2.33;1.10;;;18.90;50.60;;;;;;4897425;29;20086;-68
2022/11/22 12:14:32;;;;;;;2.28;1.05;;;18.80;51.30;;;;;;4898858;29;20043;-68
2022/11/22 12:17:04;;;;;;;6.32;1.15;;;18.80;50.60;;;;;;4913729;29;20496;-67
2022/11/22 12:19:40;;;;;;;3.05;1.20;;;18.90;50.50;;;;;;4922906;29;20055;-69
2022/11/22 12:22:21;;;;;;;5.78;1.10;;;18.90;50.60;;;;;;4899708;29;20051;-68
2022/11/22 12:25:18;;;;;;;2.53;1.30;;;18.90;50.50;;;;;;4925413;29;20044;-69
2022/11/22 12:27:44;;;;;;;3.30;1.30;;;18.90;50.40;;;;;;4895181;29;20107;-66
2022/11/22 12:30:11;;;;;;;4.28;1.20;;;18.90;50.40;;;;;;4917962;29;20039;-68
2022/11/22 12:33:01;;;;;;;6.32;1.50;;;19.00;50.40;;;;;;4914956;29;20138;-67
2022/11/22 12:35:32;;;;;;;5.53;1.20;;;19.00;50.50;;;;;;4910815;29;20115;-68
2022/11/22 12:38:17;;;;;;;6.25;1.20;;;19.00;50.60;;;;;;4909067;29;20106;-66
2022/11/22 12:40:48;;;;;;;7.60;1.42;;;19.00;50.50;;;;;;4899164;29;20513;-65
2022/11/22 12:43:29;;;;;;;3.20;1.05;;;19.10;50.50;;;;;;4920908;29;20051;-67
2022/11/22 12:45:59;;;;;;;4.57;1.17;;;19.00;50.40;;;;;;4894933;29;20139;-66
2022/11/22 12:48:33;;;;;;;3.45;1.20;;;19.10;50.50;;;;;;4913040;29;20736;-68
2022/11/22 12:51:12;;;;;;;4.43;1.13;;;19.10;50.40;;;;;;4903661;29;20099;-66
2022/11/22 12:53:42;;;;;;;3.40;0.90;;;19.10;50.40;;;;;;4915909;29;20052;-68
2022/11/22 12:56:26;;;;;;;3.78;1.20;;;19.20;50.30;;;;;;4896506;29;20075;-67
2022/11/22 12:59:08;;;;;;;3.83;1.08;;;19.20;50.40;;;;;;4915800;29;20042;-68
2022/11/22 13:01:51;;;;;;;3.97;1.20;;;19.20;50.20;;;;;;4893088;29;20052;-68
2022/11/22 13:04:47;;;;;;;3.47;0.95;;;19.20;50.20;;;;;;4897850;29;22077;-69
2022/11/22 13:07:24;;;;;;;4.88;1.17;;;19.20;49.90;;;;;;4914435;29;20067;-69
2022/11/22 13:10:02;;;;;;;3.90;0.98;;;19.20;50.00;;;;;;4903690;29;20150;-69
2022/11/22 13:12:32;;;;;;;6.63;1.23;;;19.20;50.00;;;;;;4916012;29;20630;-68
2022/11/22 13:14:59;;;;;;;6.07;1.08;;;19.20;50.00;;;;;;4916141;29;20043;-67
2022/11/22 13:17:29;;;;;;;2.60;1.10;;;19.20;50.00;;;;;;4889878;29;20397;-67